Time;durP1;ratioP1;P1;durP2;ratioP2;P2;SDS_P1;SDS_P2;PMS_P1;PMS_P2;Temp;Humidity;BMP_temperature;BMP_pressure;BME280_temperature;BME280_humidity;BME280_pressure;Samples;Min_cycle;Max_cycle;Signal;HPM_P1;HPM_P2
2022/10/18 00:00:01;;;;;;;13.18;9.88;;;;;;;4.71;92.94;100897.77;1826293;78;21031;-71
2022/10/18 00:02:27;;;;;;;20.37;10.25;;;;;;;4.70;93.10;100908.93;1745918;82;21380;-72
2022/10/18 00:04:54;;;;;;;12.70;9.68;;;;;;;4.69;93.17;100902.48;1823200;78;20940;-71
2022/10/18 00:07:20;;;;;;;15.80;9.68;;;;;;;4.68;92.98;100899.47;1823257;78;20971;-71
2022/10/18 00:09:47;;;;;;;16.70;9.70;;;;;;;4.67;92.94;100892.59;1823233;78;20923;-71
2022/10/18 00:12:14;;;;;;;16.15;9.80;;;;;;;4.67;92.89;100896.02;1823326;78;20964;-71
2022/10/18 00:14:42;;;;;;;17.85;10.10;;;;;;;4.65;92.82;100891.29;1823263;78;21531;-71
2022/10/18 00:17:09;;;;;;;14.38;8.93;;;;;;;4.63;92.74;100886.55;1823227;78;21019;-71
2022/10/18 00:19:35;;;;;;;11.50;8.48;;;;;;;4.61;92.68;100893.41;1823314;78;20978;-71
2022/10/18 00:22:04;;;;;;;12.55;9.08;;;;;;;4.61;92.77;100887.39;1823186;78;21380;-72
2022/10/18 00:24:30;;;;;;;18.48;10.55;;;;;;;4.60;92.82;100891.68;1823551;78;21502;-71
2022/10/18 00:26:57;;;;;;;13.68;9.85;;;;;;;4.61;92.95;100884.39;1823259;78;21131;-71
2022/10/18 00:29:23;;;;;;;17.23;9.78;;;;;;;4.61;92.93;100875.37;1823244;78;20943;-71
2022/10/18 00:31:50;;;;;;;13.75;9.15;;;;;;;4.62;92.89;100877.52;1823245;78;21039;-71
2022/10/18 00:34:17;;;;;;;15.43;10.10;;;;;;;4.63;92.83;100872.38;1823327;78;20983;-71
2022/10/18 00:36:44;;;;;;;12.43;8.88;;;;;;;4.61;92.89;100870.22;1823240;78;20979;-71
2022/10/18 00:39:19;;;;;;;12.58;8.50;;;;;;;4.62;92.96;100874.94;1823251;78;21071;-71
2022/10/18 00:41:47;;;;;;;15.00;9.28;;;;;;;4.62;92.89;100878.38;1823288;78;20932;-71
2022/10/18 00:44:28;;;;;;;14.10;9.30;;;;;;;4.61;92.75;100868.06;1823309;78;21384;-71
2022/10/18 00:46:59;;;;;;;15.13;9.48;;;;;;;4.62;92.58;100869.36;1823465;78;21411;-71
2022/10/18 00:49:33;;;;;;;14.30;9.75;;;;;;;4.63;92.41;100862.50;1745745;82;20939;-71
2022/10/18 00:52:04;;;;;;;14.80;10.32;;;;;;;4.64;92.57;100851.33;1821124;78;21125;-71
2022/10/18 00:54:33;;;;;;;14.63;10.45;;;;;;;4.63;92.56;100854.34;1745688;81;20986;-71
2022/10/18 00:57:00;;;;;;;13.25;9.85;;;;;;;4.62;92.45;100851.75;1823089;78;20960;-71
2022/10/18 00:59:26;;;;;;;14.47;10.15;;;;;;;4.60;92.36;100849.59;1823496;78;20927;-71
2022/10/18 01:01:53;;;;;;;14.05;9.83;;;;;;;4.58;92.34;100851.33;1823153;78;21403;-71
2022/10/18 01:04:20;;;;;;;16.20;9.70;;;;;;;4.57;92.30;100854.33;1823581;78;21186;-71
2022/10/18 01:07:15;;;;;;;12.98;10.20;;;;;;;4.55;92.29;100857.75;1776524;80;20963;-72
2022/10/18 01:10:28;;;;;;;15.83;11.35;;;;;;;4.47;92.34;100865.00;1823258;78;21022;-71
2022/10/18 01:13:15;;;;;;;18.37;10.45;;;;;;;4.39;92.41;100859.39;1823545;78;21392;-71
2022/10/18 01:15:53;;;;;;;12.53;9.78;;;;;;;4.32;92.43;100858.91;1823374;78;21034;-72
2022/10/18 01:18:35;;;;;;;12.45;9.15;;;;;;;4.26;92.51;100857.14;1821336;78;20963;-71
2022/10/18 01:21:16;;;;;;;14.00;9.80;;;;;;;4.24;92.52;100861.42;1823206;78;21022;-71
2022/10/18 01:24:19;;;;;;;13.70;8.80;;;;;;;4.23;92.47;100851.97;1823578;78;21408;-72
2022/10/18 01:27:01;;;;;;;14.07;8.90;;;;;;;4.23;92.51;100848.53;1822929;78;28066;-71
2022/10/18 01:30:03;;;;;;;12.58;8.85;;;;;;;4.23;92.71;100851.97;1823647;78;20936;-71
2022/10/18 01:32:35;;;;;;;14.65;10.25;;;;;;;4.25;92.94;100859.28;1823363;78;21101;-71
2022/10/18 01:35:10;;;;;;;13.40;9.53;;;;;;;4.26;92.96;100862.72;1823401;78;21491;-71
2022/10/18 01:37:38;;;;;;;14.63;10.23;;;;;;;4.24;92.89;100864.00;1745905;81;20940;-71
2022/10/18 01:40:07;;;;;;;16.27;9.88;;;;;;;4.20;92.88;100857.09;1823377;78;21052;-71
2022/10/18 01:42:34;;;;;;;12.33;9.25;;;;;;;4.18;93.07;100847.23;1823466;78;20936;-71
2022/10/18 01:45:01;;;;;;;14.40;9.48;;;;;;;4.15;93.12;100844.64;1823467;78;21730;-71
2022/10/18 01:47:27;;;;;;;17.23;10.70;;;;;;;4.15;93.11;100836.49;1823533;78;21370;-71
2022/10/18 01:50:03;;;;;;;16.42;10.58;;;;;;;4.15;93.14;100834.34;1823859;78;21483;-71
2022/10/18 01:52:30;;;;;;;20.70;10.35;;;;;;;4.15;93.27;100832.63;1823750;78;21459;-71
2022/10/18 01:54:58;;;;;;;16.05;10.78;;;;;;;4.18;93.22;100828.35;1823576;78;20908;-71
2022/10/18 01:57:45;;;;;;;15.35;11.18;;;;;;;4.18;93.19;100825.35;1825464;78;21884;-71
2022/10/18 02:00:16;;;;;;;16.25;10.80;;;;;;;4.17;93.12;100822.77;1828609;78;21489;-71
2022/10/18 02:03:03;;;;;;;17.40;10.32;;;;;;;4.12;93.13;100823.59;1824488;78;20983;-71
2022/10/18 02:05:50;;;;;;;15.18;9.75;;;;;;;4.06;92.84;100822.26;1748080;82;21474;-71
2022/10/18 02:08:33;;;;;;;24.95;9.68;;;;;;;4.01;92.96;100821.36;1778530;80;21069;-71
2022/10/18 02:11:05;;;;;;;15.72;10.60;;;;;;;3.97;93.16;100818.78;1778690;80;21084;-71
2022/10/18 02:13:38;;;;;;;;;;;;;;;3.93;93.37;100819.17;1781219;80;21034;-71
2022/10/18 02:16:11;;;;;;;18.42;9.65;;;;;;;3.91;93.55;100818.30;1778551;80;20165;-71
2022/10/18 02:18:43;;;;;;;16.45;9.98;;;;;;;3.88;93.57;100819.56;1778733;80;21082;-71
2022/10/18 02:21:11;;;;;;;14.05;10.38;;;;;;;3.84;93.60;100819.52;1778554;80;21007;-71
2022/10/18 02:23:39;;;;;;;18.77;10.58;;;;;;;3.81;93.73;100821.64;1748190;82;22635;-71
2022/10/18 02:26:06;;;;;;;11.78;8.98;;;;;;;3.76;93.70;100824.20;1778627;80;21406;-71
2022/10/18 02:28:32;;;;;;;15.18;8.75;;;;;;;3.72;93.85;100819.02;1778582;80;21435;-71
2022/10/18 02:31:35;;;;;;;13.93;10.30;;;;;;;3.68;93.90;100810.83;1778563;80;21034;-71
2022/10/18 02:34:16;;;;;;;14.70;10.50;;;;;;;3.64;94.11;100814.22;1778861;80;20987;-71
2022/10/18 02:36:56;;;;;;;14.98;9.65;;;;;;;3.63;94.39;100807.35;1778569;80;21243;-71
2022/10/18 02:39:45;;;;;;;15.63;10.25;;;;;;;3.62;94.56;100808.20;1778550;80;20971;-70
2022/10/18 02:42:11;;;;;;;14.93;10.35;;;;;;;3.59;94.83;100809.06;1778446;80;20971;-70
2022/10/18 02:44:38;;;;;;;18.42;11.03;;;;;;;3.57;95.08;100804.33;1706097;80;20947;-70
2022/10/18 02:47:07;;;;;;;19.73;10.98;;;;;;;3.57;95.50;100798.32;1747952;82;20987;-71
2022/10/18 02:49:33;;;;;;;16.15;11.83;;;;;;;3.57;95.77;100788.89;1778880;80;21145;-71
2022/10/18 02:52:00;;;;;;;17.65;12.00;;;;;;;3.57;96.29;100785.45;1778496;80;21506;-71
2022/10/18 02:54:27;;;;;;;19.65;13.10;;;;;;;3.57;96.88;100785.45;1748111;80;21404;-71
2022/10/18 02:56:53;;;;;;;16.10;12.05;;;;;;;3.56;97.12;100778.59;1778874;80;21030;-71
2022/10/18 02:59:19;;;;;;;19.80;12.10;;;;;;;3.54;97.30;100776.42;1823449;78;21066;-71
2022/10/18 03:01:46;;;;;;;14.80;9.58;;;;;;;3.53;97.38;100779.84;1823289;78;21132;-71
2022/10/18 03:04:12;;;;;;;16.48;9.70;;;;;;;3.51;97.12;100791.41;1823639;78;20979;-71
2022/10/18 03:06:40;;;;;;;13.48;9.33;;;;;;;3.50;96.94;100788.82;1823190;78;20972;-71
2022/10/18 03:09:07;;;;;;;13.93;9.63;;;;;;;3.49;97.04;100787.09;1823397;78;20987;-71
2022/10/18 03:11:33;;;;;;;15.10;10.80;;;;;;;3.50;97.13;100793.96;1823405;78;20927;-71
2022/10/18 03:14:00;;;;;;;15.40;10.15;;;;;;;3.48;97.01;100791.38;1823299;78;21767;-71
2022/10/18 03:16:28;;;;;;;15.50;9.53;;;;;;;3.46;96.95;100784.07;1823407;78;20920;-71
2022/10/18 03:18:55;;;;;;;14.13;9.10;;;;;;;3.44;97.07;100789.63;1823570;78;20928;-70
2022/10/18 03:21:22;;;;;;;11.12;7.90;;;;;;;3.45;97.14;100792.63;1823262;78;21522;-70
2022/10/18 03:23:48;;;;;;;13.10;8.95;;;;;;;3.44;97.18;100794.77;1823679;78;21381;-70
2022/10/18 03:26:16;;;;;;;12.13;8.15;;;;;;;3.43;97.16;100795.19;1823361;78;21404;-70
2022/10/18 03:28:43;;;;;;;11.73;9.20;;;;;;;3.44;97.18;100788.34;1823389;78;21510;-70
2022/10/18 03:31:09;;;;;;;13.75;8.95;;;;;;;3.49;97.20;100791.81;1823259;78;21042;-70
2022/10/18 03:33:37;;;;;;;14.47;9.63;;;;;;;3.51;97.18;100791.83;1823274;78;20976;-70
2022/10/18 03:36:06;;;;;;;14.35;9.73;;;;;;;3.52;97.20;100787.98;1823287;78;20951;-70
2022/10/18 03:38:33;;;;;;;16.52;9.60;;;;;;;3.52;97.05;100793.13;1823386;78;21197;-70
2022/10/18 03:40:59;;;;;;;16.70;8.85;;;;;;;3.52;96.92;100792.27;1776507;80;21005;-70
2022/10/18 03:43:26;;;;;;;16.95;9.38;;;;;;;3.52;96.80;100780.27;1823355;78;20967;-70
2022/10/18 03:45:53;;;;;;;18.70;10.40;;;;;;;3.52;96.94;100776.41;1823478;78;21444;-70
2022/10/18 03:48:20;;;;;;;20.97;10.60;;;;;;;3.50;97.08;100779.81;1823535;78;21486;-70
2022/10/18 03:50:47;;;;;;;15.53;10.10;;;;;;;3.47;97.18;100781.94;1823361;78;21243;-70
2022/10/18 03:53:13;;;;;;;17.50;10.50;;;;;;;3.43;97.21;100777.61;1823302;78;20959;-71
2022/10/18 03:55:40;;;;;;;15.20;10.05;;;;;;;3.39;97.33;100766.46;1823337;78;20979;-70
2022/10/18 03:58:06;;;;;;;16.87;9.90;;;;;;;3.38;97.56;100762.59;1823227;78;20979;-70
2022/10/18 04:00:33;;;;;;;15.95;9.58;;;;;;;3.38;97.73;100751.02;1746140;82;21015;-70
2022/10/18 04:03:00;;;;;;;14.95;10.88;;;;;;;3.38;97.78;100748.44;1823180;78;21128;-70
2022/10/18 04:05:29;;;;;;;29.30;12.70;;;;;;;3.37;97.89;100745.44;1823301;78;21447;-70
2022/10/18 04:07:57;;;;;;;18.98;10.88;;;;;;;3.38;97.97;100742.02;1823351;78;20928;-70
2022/10/18 04:10:23;;;;;;;18.10;12.05;;;;;;;3.39;97.91;100739.45;1823406;78;21003;-71
2022/10/18 04:12:50;;;;;;;19.20;12.28;;;;;;;3.43;97.84;100735.17;1823251;78;21026;-71
2022/10/18 04:15:17;;;;;;;17.42;11.60;;;;;;;3.43;97.57;100732.17;1823354;78;21138;-71
2022/10/18 04:17:45;;;;;;;19.60;11.63;;;;;;;3.43;97.39;100732.59;1823254;78;20921;-71
2022/10/18 04:20:11;;;;;;;17.62;11.65;;;;;;;3.42;97.36;100731.73;1823203;78;20943;-71
2022/10/18 04:22:39;;;;;;;25.25;12.73;;;;;;;3.41;97.36;100733.88;1823159;78;21058;-71
2022/10/18 04:25:07;;;;;;;26.95;13.13;;;;;;;3.41;97.38;100726.58;1823410;78;20949;-71
2022/10/18 04:27:36;;;;;;;19.50;12.68;;;;;;;3.40;97.58;100719.72;1823368;78;21247;-71
2022/10/18 04:30:04;;;;;;;25.82;12.65;;;;;;;3.40;97.77;100716.72;1823161;78;20976;-71
2022/10/18 04:32:33;;;;;;;37.58;14.43;;;;;;;3.42;98.01;100721.87;1823316;78;21522;-71
2022/10/18 04:35:04;;;;;;;24.25;11.55;;;;;;;3.43;98.16;100720.60;1823213;78;20975;-71
2022/10/18 04:37:31;;;;;;;20.30;11.40;;;;;;;3.45;98.19;100720.62;1823611;78;21527;-71
2022/10/18 04:39:58;;;;;;;26.00;11.88;;;;;;;3.45;98.21;100725.34;1745726;82;21146;-71
2022/10/18 04:42:24;;;;;;;25.82;12.65;;;;;;;3.48;98.28;100716.78;1823248;78;20970;-71
2022/10/18 04:44:52;;;;;;;23.87;12.82;;;;;;;3.50;98.24;100718.95;1823299;78;20979;-71
2022/10/18 04:47:18;;;;;;;27.85;13.90;;;;;;;3.52;98.22;100714.68;1823342;78;20939;-71
2022/10/18 04:49:46;;;;;;;31.75;12.35;;;;;;;3.56;98.16;100711.28;1823237;78;20940;-71
2022/10/18 04:52:12;;;;;;;25.68;13.58;;;;;;;3.60;98.01;100711.71;1823382;78;21949;-71
2022/10/18 04:54:39;;;;;;;27.67;12.37;;;;;;;3.62;97.92;100701.01;1823206;78;21268;-71
2022/10/18 04:57:05;;;;;;;22.60;10.55;;;;;;;3.66;97.81;100695.03;1823323;78;20975;-71
2022/10/18 04:59:32;;;;;;;24.82;10.68;;;;;;;3.72;97.75;100698.08;1823047;78;21004;-71
2022/10/18 05:01:59;;;;;;;28.32;11.75;;;;;;;3.77;97.78;100692.12;1823272;78;21025;-72
2022/10/18 05:04:26;;;;;;;29.90;11.30;;;;;;;3.84;97.76;100689.13;1823635;78;21114;-72
2022/10/18 05:06:52;;;;;;;17.15;10.95;;;;;;;3.89;97.71;100682.30;1823412;78;21015;-71
2022/10/18 05:09:23;;;;;;;37.88;13.68;;;;;;;3.96;97.57;100688.34;1823371;78;21054;-72
2022/10/18 05:11:50;;;;;;;29.70;12.20;;;;;;;4.02;97.37;100691.79;1823524;78;21581;-71
2022/10/18 05:14:17;;;;;;;30.50;16.23;;;;;;;4.08;97.18;100696.11;1823386;78;20935;-71
2022/10/18 05:16:46;;;;;;;53.83;24.57;;;;;;;4.13;96.74;100695.29;1798789;78;21125;-71
2022/10/18 05:19:17;;;;;;;20.30;13.00;;;;;;;4.18;96.38;100686.30;1771929;79;20945;-72
2022/10/18 05:21:53;;;;;;;17.00;12.50;;;;;;;4.24;96.12;100691.45;1772671;80;20926;-71
2022/10/18 05:24:29;;;;;;;27.87;15.45;;;;;;;4.32;95.91;100698.80;1790675;79;21039;-72
2022/10/18 05:26:58;;;;;;;20.35;14.60;;;;;;;4.42;95.86;100696.66;1783264;79;20944;-72
2022/10/18 05:29:25;;;;;;;23.32;14.23;;;;;;;4.50;95.60;100706.58;1769939;80;21926;-72
2022/10/18 05:31:54;;;;;;;20.92;14.83;;;;;;;4.59;95.15;100703.61;1773489;80;21048;-72
2022/10/18 05:34:23;;;;;;;21.02;12.73;;;;;;;4.67;94.72;100708.33;1789781;80;21071;-71
2022/10/18 05:36:50;;;;;;;20.55;11.20;;;;;;;4.75;94.29;100700.20;1788800;80;21467;-72
2022/10/18 05:39:24;;;;;;;16.50;10.50;;;;;;;4.84;93.78;100704.06;1789517;80;21000;-72
2022/10/18 05:41:56;;;;;;;17.50;11.50;;;;;;;4.93;93.50;100702.80;1790026;80;21743;-73
2022/10/18 05:44:34;;;;;;;20.50;11.03;;;;;;;5.05;93.26;100710.95;1768307;80;20965;-73
2022/10/18 05:47:09;;;;;;;20.10;10.13;;;;;;;5.16;92.74;100708.83;1789455;80;21543;-72
2022/10/18 05:49:39;;;;;;;19.20;11.22;;;;;;;5.30;92.17;100707.53;1784719;80;21001;-72
2022/10/18 05:52:07;;;;;;;17.65;10.32;;;;;;;5.44;91.82;100710.95;1788970;80;22041;-72
2022/10/18 05:54:37;;;;;;;20.30;10.50;;;;;;;5.56;91.31;100707.52;1789297;80;21126;-73
2022/10/18 05:57:05;;;;;;;18.32;10.88;;;;;;;5.68;90.74;100707.48;1789553;80;20928;-73
2022/10/18 05:59:31;;;;;;;33.60;13.48;;;;;;;5.80;90.11;100701.42;1793262;80;21457;-73
2022/10/18 06:02:08;;;;;;;22.40;13.68;;;;;;;5.90;90.29;100699.73;1779503;80;21035;-72
2022/10/18 06:04:39;;;;;;;32.88;14.10;;;;;;;6.01;90.36;100705.70;1745852;81;21393;-72
2022/10/18 06:07:10;;;;;;;33.92;16.00;;;;;;;6.11;90.53;100707.41;1786641;78;21530;-75
2022/10/18 06:09:49;;;;;;;36.50;15.28;;;;;;;6.22;90.91;100706.91;1776106;80;21023;-74
2022/10/18 06:12:29;;;;;;;26.23;13.08;;;;;;;6.35;91.08;100699.99;1761664;81;21328;-73
2022/10/18 06:15:11;;;;;;;24.43;13.55;;;;;;;6.49;90.71;100699.05;1762788;80;20996;-73
2022/10/18 06:17:54;;;;;;;25.45;12.25;;;;;;;6.64;90.21;100697.23;1762041;81;21067;-74
2022/10/18 06:20:59;;;;;;;30.23;15.17;;;;;;;6.76;89.40;100699.33;1762028;81;21488;-73
2022/10/18 06:23:33;;;;;;;19.42;14.28;;;;;;;6.87;88.59;100696.23;1762133;81;21628;-73
2022/10/18 06:26:04;;;;;;;29.37;14.05;;;;;;;7.02;89.52;100696.98;1775416;80;21024;-73
2022/10/18 06:28:34;;;;;;;34.10;14.38;;;;;;;7.15;90.19;100698.62;1777424;79;21043;-73
2022/10/18 06:31:02;;;;;;;30.10;13.85;;;;;;;7.28;89.93;100692.46;1769985;80;21016;-73
2022/10/18 06:33:36;;;;;;;26.42;14.15;;;;;;;7.44;89.68;100689.30;1775136;80;21222;-73
2022/10/18 06:36:08;;;;;;;18.40;11.45;;;;;;;7.56;88.87;100690.05;1765200;81;21030;-73
2022/10/18 06:38:36;;;;;;;21.70;12.95;;;;;;;7.74;88.06;100688.15;1745896;81;20959;-74
2022/10/18 06:41:04;;;;;;;23.57;10.48;;;;;;;7.89;87.16;100686.68;1765375;81;20986;-74
2022/10/18 06:43:31;;;;;;;18.55;10.50;;;;;;;8.06;86.09;100683.89;1764883;81;21525;-73
2022/10/18 06:46:03;;;;;;;20.70;10.15;;;;;;;8.22;84.90;100685.41;1764634;81;21159;-72
2022/10/18 06:48:31;;;;;;;17.20;9.08;;;;;;;8.39;83.62;100688.70;1764931;81;21169;-73
2022/10/18 06:51:03;;;;;;;18.32;9.80;;;;;;;8.56;82.33;100682.84;1781573;80;21461;-73
2022/10/18 06:53:40;;;;;;;17.73;9.13;;;;;;;8.74;81.14;100680.42;1744790;80;21451;-73
2022/10/18 06:56:15;;;;;;;13.93;8.10;;;;;;;8.91;80.09;100682.32;1725287;82;20994;-73
2022/10/18 06:58:49;;;;;;;15.15;8.98;;;;;;;9.08;78.30;100676.86;1745999;80;21189;-75
2022/10/18 07:01:18;;;;;;;18.42;8.65;;;;;;;9.26;76.96;100673.10;1745087;82;21557;-74
2022/10/18 07:03:48;;;;;;;14.58;8.23;;;;;;;9.42;75.90;100675.84;1735249;82;21025;-73
2022/10/18 07:06:18;;;;;;;22.55;8.45;;;;;;;9.57;75.09;100673.44;1745684;82;21069;-74
2022/10/18 07:08:52;;;;;;;12.23;7.05;;;;;;;9.71;74.39;100668.84;1745253;82;21057;-72
2022/10/18 07:11:25;;;;;;;14.45;7.85;;;;;;;9.86;73.16;100662.48;1745582;82;21763;-72
2022/10/18 07:14:04;;;;;;;15.13;7.85;;;;;;;10.01;72.38;100666.06;1745716;82;21494;-71
2022/10/18 07:16:37;;;;;;;16.70;7.70;;;;;;;10.16;71.68;100658.42;1729125;82;21217;-73
2022/10/18 07:19:08;;;;;;;9.53;7.62;;;;;;;10.32;70.71;100659.39;1719926;82;21042;-73
2022/10/18 07:21:37;;;;;;;13.10;8.25;;;;;;;10.47;69.96;100653.44;1736389;82;21069;-73
2022/10/18 07:24:05;;;;;;;18.17;8.48;;;;;;;10.61;69.34;100660.03;1744813;82;21148;-73
2022/10/18 07:26:41;;;;;;;17.23;9.18;;;;;;;10.75;68.77;100653.23;1744168;82;21050;-72
2022/10/18 07:29:12;;;;;;;14.07;9.18;;;;;;;10.87;67.54;100649.03;1743850;82;21093;-73
2022/10/18 07:31:42;;;;;;;11.93;8.00;;;;;;;11.02;66.47;100646.49;1717496;82;21670;-73
2022/10/18 07:34:14;;;;;;;13.72;8.28;;;;;;;11.14;66.09;100641.45;1718192;82;21072;-74
2022/10/18 07:36:44;;;;;;;12.68;7.65;;;;;;;11.26;65.70;100643.28;1732171;82;21941;-73
2022/10/18 07:39:12;;;;;;;15.43;8.23;;;;;;;11.38;64.20;100642.98;1729253;82;21554;-73
2022/10/18 07:41:40;;;;;;;11.68;7.92;;;;;;;11.50;63.35;100634.42;1728271;82;20954;-73
2022/10/18 07:44:09;;;;;;;14.53;8.00;;;;;;;11.61;63.23;100630.62;1731609;82;21569;-72
2022/10/18 07:46:36;;;;;;;12.05;7.37;;;;;;;11.72;62.52;100624.69;1735491;82;20928;-72
2022/10/18 07:49:06;;;;;;;8.53;6.62;;;;;;;11.84;61.99;100631.33;1709862;83;21135;-72
2022/10/18 07:51:36;;;;;;;9.90;6.42;;;;;;;11.96;61.50;100629.69;1717089;82;20974;-73
2022/10/18 07:54:06;;;;;;;9.43;6.62;;;;;;;12.08;60.98;100627.17;1717901;83;20994;-73
2022/10/18 07:56:36;;;;;;;22.02;7.45;;;;;;;12.18;60.74;100622.09;1713323;82;21073;-73
2022/10/18 07:59:03;;;;;;;12.15;6.65;;;;;;;12.29;60.27;100616.55;1736447;80;21002;-73
2022/10/18 08:01:30;;;;;;;13.90;7.83;;;;;;;12.40;59.86;100615.75;1718947;82;21129;-73
2022/10/18 08:04:02;;;;;;;11.50;6.33;;;;;;;12.51;59.71;100616.75;1735771;82;20943;-72
2022/10/18 08:06:32;;;;;;;9.73;6.47;;;;;;;12.61;58.88;100616.84;1736125;82;20994;-73
2022/10/18 08:08:59;;;;;;;18.07;6.60;;;;;;;12.72;58.01;100613.02;1786934;80;20980;-73
2022/10/18 08:11:25;;;;;;;14.30;5.90;;;;;;;12.83;57.02;100613.10;1730425;81;20956;-74
2022/10/18 08:13:53;;;;;;;26.10;9.93;;;;;;;12.93;57.00;100611.91;1759546;81;21540;-71
2022/10/18 08:16:26;;;;;;;9.50;6.30;;;;;;;13.02;56.87;100605.06;1785904;80;21028;-71
2022/10/18 08:18:53;;;;;;;21.07;6.15;;;;;;;13.14;56.02;100605.12;1790931;80;20989;-73
2022/10/18 08:21:21;;;;;;;11.88;6.33;;;;;;;13.23;55.68;100602.20;1790654;80;20965;-72
2022/10/18 08:23:48;;;;;;;14.55;5.80;;;;;;;13.32;55.64;100600.60;1790808;80;20933;-74
2022/10/18 08:26:18;;;;;;;12.20;6.97;;;;;;;13.43;55.85;100599.76;1790815;80;21858;-74
2022/10/18 08:28:46;;;;;;;12.95;5.55;;;;;;;13.54;55.98;100603.31;1790641;79;20905;-74
2022/10/18 08:31:18;;;;;;;10.35;5.22;;;;;;;13.63;53.86;100598.59;1790782;80;21040;-75
2022/10/18 08:33:46;;;;;;;8.80;4.53;;;;;;;13.73;52.94;100600.44;1790859;80;20938;-73
2022/10/18 08:36:15;;;;;;;7.08;4.15;;;;;;;13.86;52.89;100596.91;1784883;80;22234;-72
2022/10/18 08:38:42;;;;;;;20.52;5.87;;;;;;;13.95;51.49;100600.05;1759504;81;21115;-73
2022/10/18 08:42:05;;;;;;;6.40;4.80;;;;;;;14.06;50.98;100590.02;1759509;81;20919;-71
2022/10/18 08:44:32;;;;;;;10.33;5.33;;;;;;;14.18;51.13;100594.41;1759916;81;20999;-72
2022/10/18 08:47:05;;;;;;;8.95;5.17;;;;;;;14.31;50.05;100593.02;1759701;80;21411;-71
2022/10/18 08:49:55;;;;;;;12.50;6.12;;;;;;;14.41;49.96;100590.45;1763001;80;21028;-73
2022/10/18 08:52:50;;;;;;;10.08;5.35;;;;;;;14.51;49.35;100586.57;1759837;81;21267;-72
2022/10/18 08:55:35;;;;;;;14.90;5.83;;;;;;;14.60;48.56;100588.80;1744926;80;20969;-73
2022/10/18 08:58:17;;;;;;;15.00;5.13;;;;;;;14.71;48.16;100583.14;1761018;80;20947;-73
2022/10/18 09:01:06;;;;;;;12.85;5.55;;;;;;;14.85;47.08;100582.57;1762343;80;20935;-73
2022/10/18 09:04:16;;;;;;;11.22;4.80;;;;;;;14.95;46.81;100576.91;1762620;81;21026;-73
2022/10/18 09:07:15;;;;;;;8.63;4.22;;;;;;;15.16;44.60;100577.31;1764754;80;22319;-73
2022/10/18 09:10:08;;;;;;;5.12;3.95;;;;;;;15.16;44.60;100577.31;1775009;80;21582;-73
2022/10/18 09:13:27;;;;;;;7.58;4.97;;;;;;;15.28;43.02;100560.65;1761744;80;20987;-72
2022/10/18 09:16:17;;;;;;;8.95;4.72;;;;;;;15.37;43.43;100561.11;1705385;83;21032;-73
2022/10/18 09:19:12;;;;;;;9.30;4.08;;;;;;;15.48;42.83;100556.70;1705292;84;21087;-73
2022/10/18 09:21:50;;;;;;;11.33;5.72;;;;;;;15.56;42.41;100548.53;1703757;81;22532;-73
2022/10/18 09:24:52;;;;;;;9.53;4.60;;;;;;;15.63;42.65;100544.69;1763124;80;20931;-73
2022/10/18 09:27:21;;;;;;;7.20;4.35;;;;;;;15.82;42.13;100535.06;1775647;80;21149;-71
2022/10/18 09:30:09;;;;;;;9.73;4.17;;;;;;;15.89;42.27;100531.25;1774463;80;21463;-71
2022/10/18 09:32:59;;;;;;;8.28;4.22;;;;;;;15.89;42.27;100531.25;1791498;80;20980;-73
2022/10/18 09:35:32;;;;;;;13.03;4.40;;;;;;;15.98;41.92;100529.98;1794232;80;39241;-73
2022/10/18 09:38:08;;;;;;;15.88;4.10;;;;;;;16.05;41.23;100522.19;1794152;79;20945;-73
2022/10/18 09:40:44;;;;;;;10.78;4.85;;;;;;;16.13;41.12;100523.54;1793965;80;20987;-72
2022/10/18 09:43:19;;;;;;;7.80;3.27;;;;;;;16.20;40.17;100514.89;1791617;80;21016;-72
2022/10/18 09:45:46;;;;;;;6.53;3.92;;;;;;;16.28;38.94;100510.13;1745390;81;21438;-72
2022/10/18 09:48:30;;;;;;;6.37;3.33;;;;;;;16.38;37.60;100509.24;1762876;80;21552;-73
2022/10/18 09:51:05;;;;;;;4.35;3.40;;;;;;;16.44;38.14;100509.77;1768492;80;20945;-72
2022/10/18 09:54:19;;;;;;;11.00;2.83;;;;;;;16.52;37.89;100505.00;1755894;80;21000;-72
2022/10/18 09:56:50;;;;;;;;;;;;;;;16.60;38.24;100499.81;1769563;80;21441;-73
2022/10/18 09:59:23;;;;;;;6.55;3.98;;;;;;;16.70;37.59;100496.70;1764787;80;20248;-72
2022/10/18 10:01:53;;;;;;;6.73;3.17;;;;;;;16.76;37.10;100492.92;1749860;80;21287;-72
2022/10/18 10:07:36;;;;;;;6.78;3.02;;;;;;;16.86;36.85;100479.22;1779441;80;21330;-73
2022/10/18 10:10:23;;;;;;;5.03;3.05;;;;;;;16.93;36.58;100474.98;1779644;80;21081;-73
2022/10/18 10:13:21;;;;;;;6.85;3.30;;;;;;;16.97;36.73;100471.27;1780082;80;21045;-73
2022/10/18 10:15:56;;;;;;;7.03;3.10;;;;;;;17.03;36.70;100459.09;1720586;83;21062;-73
2022/10/18 10:18:40;;;;;;;10.93;3.27;;;;;;;17.08;36.76;100457.09;1692204;83;21078;-73
2022/10/18 10:21:22;;;;;;;18.65;4.40;;;;;;;17.13;36.43;100457.70;1751169;82;21506;-73
2022/10/18 10:24:00;;;;;;;4.40;3.02;;;;;;;17.16;36.29;100453.60;1785528;80;21033;-71
2022/10/18 10:26:37;;;;;;;6.67;2.87;;;;;;;17.18;35.50;100439.91;1784858;80;21045;-72
2022/10/18 10:29:38;;;;;;;7.78;3.50;;;;;;;17.21;35.64;100433.15;1784774;80;21856;-73
2022/10/18 10:32:11;;;;;;;7.20;3.22;;;;;;;17.24;35.99;100425.10;1745388;80;21041;-72
2022/10/18 10:34:45;;;;;;;10.10;3.42;;;;;;;17.29;35.77;100420.45;1735823;80;21073;-74
2022/10/18 10:37:34;;;;;;;8.40;3.87;;;;;;;17.33;35.92;100410.63;1773680;80;20982;-73
2022/10/18 10:40:27;;;;;;;9.25;3.77;;;;;;;17.35;36.13;100410.93;1763596;80;21095;-70
2022/10/18 10:43:08;;;;;;;9.08;3.60;;;;;;;17.38;36.35;100410.77;1755081;80;21246;-73
2022/10/18 10:45:39;;;;;;;11.70;4.17;;;;;;;17.42;36.00;100392.55;1754384;81;21024;-72
2022/10/18 10:48:15;;;;;;;9.78;3.62;;;;;;;17.44;35.71;100392.00;1754345;81;21020;-71
2022/10/18 10:51:01;;;;;;;6.10;3.35;;;;;;;17.47;35.55;100388.36;1762148;80;21091;-71
2022/10/18 10:53:51;;;;;;;4.78;3.37;;;;;;;17.50;35.47;100377.67;1779905;79;21091;-73
2022/10/18 10:56:28;;;;;;;22.65;6.75;;;;;;;17.54;36.18;100382.69;1786856;80;21283;-73
2022/10/18 10:59:00;;;;;;;10.03;5.03;;;;;;;17.61;36.50;100372.64;1755237;80;21020;-73
2022/10/18 11:01:31;;;;;;;7.78;3.70;;;;;;;17.65;36.67;100371.58;1763509;81;21445;-73
2022/10/18 11:04:28;;;;;;;8.95;4.42;;;;;;;17.69;36.43;100373.11;1779589;78;21023;-72
2022/10/18 11:07:10;;;;;;;6.92;3.83;;;;;;;17.71;36.71;100363.35;1785694;78;21034;-71
2022/10/18 11:09:59;;;;;;;6.87;4.08;;;;;;;17.75;36.55;100360.08;1769197;78;21228;-71
2022/10/18 11:12:45;;;;;;;5.65;4.20;;;;;;;17.77;36.55;100351.17;1794416;78;21220;-72
2022/10/18 11:15:35;;;;;;;10.95;6.90;;;;;;;17.79;36.55;100348.42;1743515;82;20980;-72
2022/10/18 11:18:28;;;;;;;6.67;3.83;;;;;;;17.81;36.79;100346.09;1790566;78;21118;-73
2022/10/18 11:21:16;;;;;;;8.90;4.08;;;;;;;17.84;36.42;100337.17;1793766;80;21039;-71
2022/10/18 11:23:46;;;;;;;7.10;4.03;;;;;;;17.84;35.73;100339.80;1794261;80;21393;-73
2022/10/18 11:27:00;;;;;;;15.83;3.95;;;;;;;17.86;36.11;100327.41;1794088;79;21099;-71
2022/10/18 11:30:16;;;;;;;9.48;3.60;;;;;;;17.87;36.32;100326.01;1711778;79;21511;-72
2022/10/18 11:33:14;;;;;;;5.97;3.20;;;;;;;17.89;36.02;100316.71;1794255;80;21012;-74
2022/10/18 11:36:40;;;;;;;6.28;3.60;;;;;;;17.95;36.44;100319.46;1735739;82;21626;-73
2022/10/18 11:39:45;;;;;;;10.15;3.70;;;;;;;17.99;36.08;100321.80;1715824;82;21280;-73
2022/10/18 11:42:27;;;;;;;6.95;2.85;;;;;;;18.01;36.14;100312.50;1715382;83;20968;-73
2022/10/18 11:45:11;;;;;;;5.15;2.40;;;;;;;18.05;35.69;100316.19;1762450;81;21519;-71
2022/10/18 11:47:47;;;;;;;4.10;2.10;;;;;;;18.07;35.90;100301.15;1715963;83;21083;-72
2022/10/18 11:50:35;;;;;;;11.68;2.85;;;;;;;18.10;34.38;100300.12;1760007;81;21527;-72
2022/10/18 11:53:47;;;;;;;5.42;2.77;;;;;;;18.13;33.95;100289.41;1738703;81;20972;-72
2022/10/18 11:56:25;;;;;;;10.30;2.50;;;;;;;18.13;33.39;100293.37;1715760;82;21016;-72
2022/10/18 11:59:10;;;;;;;7.70;2.52;;;;;;;18.17;33.02;100289.62;1762386;81;21630;-72